Time;durP1;ratioP1;P1;durP2;ratioP2;P2;SDS_P1;SDS_P2;PMS_P1;PMS_P2;Temp;Humidity;BMP_temperature;BMP_pressure;BME280_temperature;BME280_humidity;BME280_pressure;Samples;Min_cycle;Max_cycle;Signal;HPM_P1;HPM_P2
2021/09/09 00:01:53;;;;;;;67.95;33.70;;;;;;;14.50;98.46;100795.80;714101;1175;114369;-78
2021/09/09 00:16:57;;;;;;;63.48;32.78;;;;;;;14.31;97.73;100795.75;714214;1199;114469;-78
2021/09/09 00:31:59;;;;;;;73.05;32.58;;;;;;;14.13;98.47;100800.16;714545;1178;114810;-78
2021/09/09 00:47:08;;;;;;;60.60;29.63;;;;;;;14.09;99.19;100791.69;714738;1200;114658;-77
2021/09/09 01:02:11;;;;;;;68.07;33.73;;;;;;;13.84;99.91;100776.55;714854;1200;114163;-78
2021/09/09 01:17:13;;;;;;;57.83;29.30;;;;;;;13.62;100.00;100776.75;714862;1199;115198;-79
2021/09/09 01:32:16;;;;;;;47.60;25.58;;;;;;;13.35;100.00;100772.19;714384;1199;115813;-78
2021/09/09 01:47:18;;;;;;;54.08;28.15;;;;;;;13.24;100.00;100775.00;713968;1203;115419;-77
2021/09/09 02:02:21;;;;;;;52.78;27.05;;;;;;;13.11;100.00;100762.11;714404;1200;115272;-78
2021/09/09 02:17:26;;;;;;;54.00;28.20;;;;;;;12.97;100.00;100771.25;714482;1174;114640;-79
2021/09/09 02:32:28;;;;;;;58.23;29.63;;;;;;;12.85;100.00;100767.11;714142;1202;116169;-78
2021/09/09 02:47:30;;;;;;;52.45;29.20;;;;;;;12.70;100.00;100751.72;714070;1176;115969;-77
2021/09/09 03:02:33;;;;;;;51.35;26.60;;;;;;;12.59;100.00;100751.84;714485;1202;114971;-78
2021/09/09 03:17:36;;;;;;;49.30;25.40;;;;;;;12.50;100.00;100748.25;714711;1200;115177;-77
2021/09/09 03:32:38;;;;;;;56.45;28.23;;;;;;;12.41;100.00;100738.54;714154;1180;114469;-78
2021/09/09 03:47:40;;;;;;;62.23;31.48;;;;;;;12.24;100.00;100738.22;714217;1200;115681;-79
2021/09/09 04:02:43;;;;;;;65.67;30.80;;;;;;;12.27;100.00;100750.27;714214;1182;114858;-77
2021/09/09 04:17:45;;;;;;;56.35;28.58;;;;;;;12.18;100.00;100743.19;714219;1176;115113;-77
2021/09/09 04:32:47;;;;;;;56.60;28.98;;;;;;;12.10;100.00;100744.70;714269;1200;116089;-78
2021/09/09 04:47:49;;;;;;;65.78;31.48;;;;;;;12.14;100.00;100748.73;714650;1176;114591;-78
2021/09/09 05:02:51;;;;;;;61.17;29.37;;;;;;;12.39;100.00;100730.79;714390;1199;115410;-77
2021/09/09 05:17:54;;;;;;;61.40;30.53;;;;;;;12.75;100.00;100728.45;714295;1174;115410;-78
2021/09/09 05:32:56;;;;;;;71.13;35.78;;;;;;;13.37;100.00;100727.28;714147;1198;114596;-81
2021/09/09 05:47:58;;;;;;;109.87;49.97;;;;;;;14.08;100.00;100731.17;714040;1200;114500;-78
2021/09/09 06:03:02;;;;;;;88.30;44.93;;;;;;;14.97;100.00;100713.75;714082;1199;115685;-78
2021/09/09 06:18:05;;;;;;;72.80;38.28;;;;;;;16.03;100.00;100715.33;714643;1199;114873;-74
2021/09/09 06:33:08;;;;;;;39.53;22.93;;;;;;;17.25;100.00;100710.31;713917;1200;114486;-76
2021/09/09 06:48:10;;;;;;;40.55;23.15;;;;;;;18.61;100.00;100702.25;714045;1202;115792;-76
2021/09/09 07:03:13;;;;;;;24.80;16.83;;;;;;;20.11;96.69;100708.50;713852;1200;114394;-78
2021/09/09 07:18:16;;;;;;;23.60;15.87;;;;;;;21.01;91.64;100705.45;714126;1178;114606;-75
2021/09/09 07:33:18;;;;;;;24.33;13.25;;;;;;;22.43;86.98;100701.44;714360;1199;116103;-85
2021/09/09 07:48:20;;;;;;;19.18;13.63;;;;;;;23.08;81.91;100710.67;714865;1199;114507;-75
2021/09/09 08:03:22;;;;;;;14.23;10.80;;;;;;;24.02;77.98;100713.12;714860;1200;115503;-76
2021/09/09 08:18:25;;;;;;;12.40;9.03;;;;;;;24.52;73.54;100701.67;714144;1200;114815;-75
2021/09/09 08:33:27;;;;;;;13.90;8.85;;;;;;;25.05;70.79;100708.51;714530;1202;115397;-76
2021/09/09 08:48:30;;;;;;;15.70;9.67;;;;;;;25.29;67.13;100706.81;715130;1175;114196;-81
2021/09/09 09:03:43;;;;;;;11.03;7.93;;;;;;;26.06;64.80;100692.92;716037;1199;115655;-79
2021/09/09 09:18:47;;;;;;;13.68;6.78;;;;;;;26.84;62.29;100687.56;715560;1200;115892;-80
2021/09/09 09:34:02;;;;;;;12.97;5.80;;;;;;;27.03;57.71;100674.82;715916;1177;114144;-80
2021/09/09 09:49:25;;;;;;;10.95;5.20;;;;;;;27.24;54.14;100659.92;716153;1199;114339;-81
2021/09/09 10:04:27;;;;;;;7.98;4.75;;;;;;;27.54;53.20;100644.65;714290;1199;115000;-78
2021/09/09 10:19:32;;;;;;;9.40;4.68;;;;;;;27.98;50.37;100642.23;714303;1203;114333;-93
2021/09/09 10:34:35;;;;;;;6.60;4.73;;;;;;;28.09;50.02;100627.08;717235;1201;113841;-91
2021/09/09 10:49:37;;;;;;;9.50;5.05;;;;;;;28.20;48.54;100615.41;716345;1200;115537;-75
2021/09/09 11:04:39;;;;;;;7.15;5.05;;;;;;;28.03;47.75;100618.09;715358;1200;115905;-82
2021/09/09 11:19:41;;;;;;;8.18;4.75;;;;;;;28.60;48.65;100591.17;714406;1203;114605;-82
2021/09/09 11:34:44;;;;;;;11.63;5.73;;;;;;;28.62;48.00;100586.35;714365;1203;114019;-84
2021/09/09 11:49:47;;;;;;;7.93;4.70;;;;;;;28.54;46.74;100571.41;715018;1200;114461;-82
2021/09/09 12:04:51;;;;;;;7.93;4.50;;;;;;;29.26;47.19;100553.47;715687;1200;115239;-85
2021/09/09 12:20:04;;;;;;;7.03;5.13;;;;;;;29.21;46.71;100542.58;715136;1178;114493;-84
2021/09/09 12:35:20;;;;;;;8.48;4.48;;;;;;;29.25;46.66;100530.19;728094;1199;114774;-82
2021/09/09 12:50:35;;;;;;;7.28;4.58;;;;;;;29.73;45.57;100524.98;716241;1200;114511;-82
2021/09/09 13:05:38;;;;;;;10.03;4.30;;;;;;;30.22;45.85;100502.38;714535;1200;114233;-84
2021/09/09 13:20:40;;;;;;;5.73;3.90;;;;;;;29.94;44.74;100484.63;714415;1200;115616;-78
2021/09/09 13:35:43;;;;;;;7.18;3.83;;;;;;;29.99;43.24;100477.36;714532;1199;114469;-81
2021/09/09 13:50:46;;;;;;;6.57;3.30;;;;;;;31.95;40.79;100461.66;714186;1200;114564;-80
2021/09/09 14:05:49;;;;;;;4.35;3.38;;;;;;;35.85;36.59;100438.25;714436;1200;114537;-81
2021/09/09 14:20:51;;;;;;;4.80;2.88;;;;;;;32.11;39.69;100416.31;717459;1204;114422;-82
2021/09/09 14:35:54;;;;;;;7.03;3.43;;;;;;;36.05;37.97;100428.05;714591;1200;115617;-81
2021/09/09 14:50:57;;;;;;;5.73;3.50;;;;;;;40.82;34.58;100413.38;714155;1178;114076;-81
2021/09/09 15:05:59;;;;;;;5.13;3.20;;;;;;;41.02;33.42;100406.28;714021;1199;114631;-81
2021/09/09 15:21:02;;;;;;;10.45;3.75;;;;;;;32.88;37.62;100379.87;713950;1200;114406;-80
2021/09/09 15:36:05;;;;;;;9.15;5.85;;;;;;;37.79;36.34;100373.16;713906;1199;114902;-81
2021/09/09 15:51:08;;;;;;;3.78;3.20;;;;;;;32.03;39.38;100363.45;714409;1199;114001;-84
2021/09/09 16:06:11;;;;;;;11.30;6.00;;;;;;;37.52;36.53;100364.00;714417;1200;114593;-87
2021/09/09 16:21:17;;;;;;;56.50;37.83;;;;;;;30.53;39.22;100332.90;714098;1190;114461;-88
2021/09/09 16:36:20;;;;;;;11.05;6.98;;;;;;;27.24;43.71;100330.63;714196;1203;114367;-88
2021/09/09 16:51:22;;;;;;;14.18;7.23;;;;;;;25.87;46.57;100328.57;713956;1176;114689;-86
2021/09/09 17:06:24;;;;;;;9.25;6.13;;;;;;;24.41;48.58;100323.38;714046;1176;114170;-86
2021/09/09 17:21:27;;;;;;;11.17;6.07;;;;;;;23.24;51.08;100338.34;714094;1177;114695;-89
2021/09/09 17:36:30;;;;;;;13.23;5.75;;;;;;;22.14;53.99;100349.14;714578;1175;114320;-81
2021/09/09 17:51:34;;;;;;;19.57;13.20;;;;;;;21.26;57.21;100351.88;714641;1176;114055;-80
2021/09/09 18:06:37;;;;;;;19.63;10.27;;;;;;;20.81;59.22;100358.77;714731;1181;116308;-79
2021/09/09 18:21:40;;;;;;;16.35;7.53;;;;;;;20.51;60.68;100353.70;714576;1180;114296;-81
2021/09/09 18:36:42;;;;;;;11.77;7.20;;;;;;;20.20;62.34;100368.33;714091;1203;115664;-80
2021/09/09 18:51:44;;;;;;;19.23;8.20;;;;;;;19.95;63.44;100360.80;713929;1176;114750;-81
2021/09/09 19:06:47;;;;;;;37.45;15.83;;;;;;;19.75;64.74;100366.77;714148;1200;114362;-81
2021/09/09 19:21:49;;;;;;;18.70;9.95;;;;;;;19.62;65.96;100379.98;713935;1177;114811;-80
2021/09/09 19:36:52;;;;;;;10.63;7.43;;;;;;;19.38;66.57;100378.56;713916;1175;114852;-81
2021/09/09 19:51:55;;;;;;;24.00;11.78;;;;;;;19.31;67.22;100381.16;713964;1177;114221;-80
2021/09/09 20:06:57;;;;;;;41.33;21.43;;;;;;;18.88;68.43;100391.72;713984;1174;114357;-82
2021/09/09 20:21:59;;;;;;;46.58;24.53;;;;;;;18.35;70.35;100398.02;714049;1202;114381;-81
2021/09/09 20:37:01;;;;;;;60.18;34.78;;;;;;;17.87;72.03;100395.67;714153;1199;114657;-81
2021/09/09 20:52:04;;;;;;;44.10;25.00;;;;;;;17.66;73.66;100404.32;714110;1190;114208;-81
2021/09/09 21:07:06;;;;;;;36.23;21.40;;;;;;;17.29;74.92;100393.48;714464;1177;115380;-76
2021/09/09 21:22:09;;;;;;;44.73;23.87;;;;;;;16.85;76.89;100393.23;714443;1200;115788;-78
2021/09/09 21:37:12;;;;;;;44.70;22.90;;;;;;;16.51;78.50;100394.38;714118;1200;115280;-78
2021/09/09 21:52:14;;;;;;;65.95;31.35;;;;;;;16.19;79.85;100401.43;713902;1199;114386;-79
2021/09/09 22:07:16;;;;;;;58.50;27.03;;;;;;;15.93;81.36;100390.06;714437;1177;114528;-79
2021/09/09 22:22:18;;;;;;;78.90;33.97;;;;;;;15.59;82.27;100395.52;714843;1203;114203;-78
2021/09/09 22:37:21;;;;;;;58.97;30.40;;;;;;;15.31;84.27;100374.70;714518;1206;114242;-79
2021/09/09 22:52:23;;;;;;;67.68;31.90;;;;;;;15.11;85.20;100364.43;714633;1175;115842;-79
2021/09/09 23:07:25;;;;;;;73.15;34.68;;;;;;;14.84;86.44;100359.42;714041;1200;115528;-79
2021/09/09 23:22:27;;;;;;;62.55;31.60;;;;;;;14.58;86.93;100352.38;713988;1200;114393;-78
2021/09/09 23:37:30;;;;;;;55.03;29.63;;;;;;;14.47;87.91;100351.67;714141;1201;114844;-79
2021/09/09 23:52:32;;;;;;;43.78;23.08;;;;;;;14.21;89.67;100372.01;713929;1182;114786;-80
